Time;durP1;ratioP1;P1;durP2;ratioP2;P2;SDS_P1;SDS_P2;PMS_P1;PMS_P2;Temp;Humidity;BMP_temperature;BMP_pressure;BME280_temperature;BME280_humidity;BME280_pressure;Samples;Min_cycle;Max_cycle;Signal;HPM_P1;HPM_P2
2022/07/05 00:02:47;;;;;;;5.63;2.58;;;;;;;;;;6214398;23;20187;-90
2022/07/05 00:05:52;;;;;;;7.40;3.05;;;;;;;;;;6213219;23;20214;-91
2022/07/05 00:08:57;;;;;;;6.65;3.22;;;;;;;;;;6215079;23;20171;-89
2022/07/05 00:12:05;;;;;;;9.77;2.63;;;;;;;;;;6214213;23;20171;-89
2022/07/05 00:15:10;;;;;;;4.43;2.60;;;;;;;;;;6214242;23;20163;-89
2022/07/05 00:18:16;;;;;;;4.25;2.53;;;;;;;;;;6215839;23;20255;-89
2022/07/05 00:21:21;;;;;;;5.20;2.60;;;;;;;;;;6215160;23;20617;-89
2022/07/05 00:24:27;;;;;;;6.00;2.80;;;;;;;;;;6214923;23;20241;-89
2022/07/05 00:27:33;;;;;;;11.82;3.13;;;;;;;;;;6213723;23;20171;-88
2022/07/05 00:30:38;;;;;;;7.30;2.80;;;;;;;;;;6212816;23;20163;-89
2022/07/05 00:33:44;;;;;;;7.68;3.10;;;;;;;;;;6212667;23;20154;-89
2022/07/05 00:36:49;;;;;;;5.70;3.15;;;;;;;;;;6213467;23;20159;-90
2022/07/05 00:39:54;;;;;;;6.05;3.28;;;;;;;;;;6212573;23;20167;-89
2022/07/05 00:43:01;;;;;;;5.78;3.30;;;;;;;;;;6210834;23;20171;-90
2022/07/05 00:46:06;;;;;;;8.15;3.20;;;;;;;;;;6211909;23;20187;-90
2022/07/05 00:49:12;;;;;;;5.75;3.10;;;;;;;;;;6211738;23;20166;-89
2022/07/05 00:52:17;;;;;;;6.50;3.53;;;;;;;;;;6212757;23;20155;-89
2022/07/05 00:55:22;;;;;;;8.50;3.13;;;;;;;;;;6212574;23;20162;-89
2022/07/05 00:58:29;;;;;;;4.75;3.67;;;;;;;;;;6213330;23;20187;-90
2022/07/05 01:01:35;;;;;;;8.45;4.18;;;;;;;;;;6212036;23;20171;-91
2022/07/05 01:04:40;;;;;;;8.07;3.92;;;;;;;;;;6212041;23;20171;-89
2022/07/05 01:07:45;;;;;;;10.02;3.92;;;;;;;;;;6210090;23;20211;-89
2022/07/05 01:10:51;;;;;;;6.68;4.30;;;;;;;;;;6214860;23;20155;-89
2022/07/05 01:13:57;;;;;;;13.57;4.70;;;;;;;;;;6212888;23;20263;-88
2022/07/05 01:17:03;;;;;;;11.32;5.30;;;;;;;;;;6213643;23;20188;-89
2022/07/05 01:20:09;;;;;;;13.43;4.93;;;;;;;;;;6216412;23;20239;-90
2022/07/05 01:23:17;;;;;;;9.07;5.32;;;;;;;;;;6214269;23;20510;-89
2022/07/05 01:26:22;;;;;;;10.60;5.30;;;;;;;;;;6214250;23;20199;-89
2022/07/05 01:29:28;;;;;;;13.88;5.22;;;;;;;;;;6213635;23;20194;-90
2022/07/05 01:32:34;;;;;;;9.82;5.20;;;;;;;;;;6214854;23;20166;-89
2022/07/05 01:35:39;;;;;;;10.73;5.60;;;;;;;;;;6214802;23;20175;-89
2022/07/05 01:38:46;;;;;;;11.38;4.75;;;;;;;;;;6214042;23;20170;-89
2022/07/05 01:41:51;;;;;;;6.55;4.30;;;;;;;;;;6215386;23;20271;-89
2022/07/05 01:44:56;;;;;;;7.80;4.82;;;;;;;;;;6211645;23;20155;-88
2022/07/05 01:48:02;;;;;;;9.27;4.65;;;;;;;;;;6212860;23;20171;-89
2022/07/05 01:51:09;;;;;;;8.13;4.85;;;;;;;;;;6214153;23;20179;-89
2022/07/05 01:54:16;;;;;;;1.15;1.05;;;;;;;;;;6212635;23;20734;-89
2022/07/05 01:57:21;;;;;;;0.65;0.65;;;;;;;;;;6214492;23;20158;-89
2022/07/05 02:12:13;;;;;;;0.52;0.52;;;;;;;;;;6189344;23;20249;-88
2022/07/05 02:15:18;;;;;;;0.57;0.57;;;;;;;;;;6212805;23;20175;-88
2022/07/05 02:18:25;;;;;;;0.40;0.40;;;;;;;;;;6211338;23;20162;-88
2022/07/05 02:21:32;;;;;;;0.65;0.65;;;;;;;;;;6209994;23;20155;-88
2022/07/05 02:24:38;;;;;;;0.45;0.45;;;;;;;;;;6210917;23;20154;-88
2022/07/05 02:27:59;;;;;;;0.45;0.45;;;;;;;;;;6212643;23;20179;-88
2022/07/05 02:31:05;;;;;;;0.50;0.50;;;;;;;;;;6213535;23;20168;-89
2022/07/05 02:34:10;;;;;;;0.43;0.43;;;;;;;;;;6211457;23;20175;-88
2022/07/05 02:37:16;;;;;;;0.40;0.40;;;;;;;;;;6212916;23;20180;-89
2022/07/05 02:40:21;;;;;;;4.28;1.77;;;;;;;;;;6213514;23;20219;-89
2022/07/05 02:43:31;;;;;;;0.77;0.77;;;;;;;;;;6212088;23;20240;-89
2022/07/05 02:46:37;;;;;;;1.38;0.60;;;;;;;;;;6213244;23;20196;-90
2022/07/05 02:49:43;;;;;;;0.63;0.63;;;;;;;;;;6213875;23;20191;-89
2022/07/05 02:52:49;;;;;;;0.47;0.47;;;;;;;;;;6213331;23;20619;-89
2022/07/05 02:55:55;;;;;;;5.72;1.48;;;;;;;;;;6213471;23;20184;-89
2022/07/05 02:59:03;;;;;;;0.63;0.63;;;;;;;;;;6213167;23;20175;-90
2022/07/05 03:02:11;;;;;;;1.25;0.98;;;;;;;;;;6211135;23;20162;-90
2022/07/05 03:05:18;;;;;;;0.70;0.70;;;;;;;;;;6211889;23;20178;-89
2022/07/05 03:08:33;;;;;;;0.57;0.57;;;;;;;;;;6211465;23;20186;-90
2022/07/05 03:11:38;;;;;;;0.60;0.60;;;;;;;;;;6214278;23;20218;-89
2022/07/05 03:14:47;;;;;;;0.50;0.50;;;;;;;;;;6212425;23;20170;-90
2022/07/05 03:38:29;;;;;;;1.15;0.70;;;;;;;;;;6182947;23;20219;-90
2022/07/05 03:41:35;;;;;;;6.15;0.95;;;;;;;;;;6211536;23;20187;-89
2022/07/05 03:44:42;;;;;;;0.60;0.60;;;;;;;;;;6210025;23;20674;-89
2022/07/05 03:47:50;;;;;;;1.00;0.88;;;;;;;;;;6211991;23;20190;-87
2022/07/05 03:50:55;;;;;;;1.55;0.75;;;;;;;;;;6211115;23;20167;-88
2022/07/05 03:54:03;;;;;;;0.43;0.43;;;;;;;;;;6210094;23;20210;-88
2022/07/05 03:57:09;;;;;;;0.65;0.57;;;;;;;;;;6210169;23;20223;-89
2022/07/05 04:00:15;;;;;;;0.20;0.20;;;;;;;;;;6211771;23;20290;-89
2022/07/05 22:43:45;;;;;;;7.80;4.95;;;;;;;;;;6182796;23;20249;-92
2022/07/05 22:46:50;;;;;;;9.05;4.82;;;;;;;;;;6210376;23;20195;-91
2022/07/05 22:49:57;;;;;;;6.68;5.00;;;;;;;;;;6210529;23;20179;-89
2022/07/05 22:53:02;;;;;;;10.77;5.38;;;;;;;;;;6211800;23;20195;-90
2022/07/05 22:56:07;;;;;;;9.05;5.07;;;;;;;;;;6210185;23;20190;-89
2022/07/05 22:59:15;;;;;;;10.68;4.93;;;;;;;;;;6209216;23;20270;-90
2022/07/05 23:27:43;;;;;;;8.98;5.15;;;;;;;;;;6226636;23;20202;-90
2022/07/05 23:30:50;;;;;;;9.98;5.30;;;;;;;;;;6212044;23;20622;-89
2022/07/05 23:33:59;;;;;;;9.88;5.18;;;;;;;;;;6206964;23;20175;-90
2022/07/05 23:37:05;;;;;;;9.02;5.63;;;;;;;;;;6206318;23;20255;-90
2022/07/05 23:40:09;;;;;;;8.60;5.32;;;;;;;;;;6204867;23;20253;-90
2022/07/05 23:43:16;;;;;;;8.15;5.55;;;;;;;;;;6204149;23;20202;-91
2022/07/05 23:46:21;;;;;;;13.57;5.22;;;;;;;;;;6209264;23;20166;-89
2022/07/05 23:49:26;;;;;;;9.02;5.45;;;;;;;;;;6209350;23;20611;-90
2022/07/05 23:52:31;;;;;;;10.68;5.80;;;;;;;;;;6209319;23;20259;-90
2022/07/05 23:55:37;;;;;;;9.00;5.47;;;;;;;;;;6209193;23;20171;-90
2022/07/05 23:58:43;;;;;;;8.65;5.47;;;;;;;;;;6207582;23;20158;-89
